createdAt,value
2018-11-06T00:02:10.304Z,27.90
2018-11-06T00:05:17.368Z,27.90
2018-11-06T00:08:12.541Z,27.90
2018-11-06T00:11:06.461Z,27.90
2018-11-06T00:13:59.631Z,28.00
2018-11-06T00:16:55.144Z,27.90
2018-11-06T00:19:47.606Z,28.00
2018-11-06T00:22:39.980Z,28.00
2018-11-06T00:25:32.086Z,27.90
2018-11-06T00:28:25.226Z,27.90
2018-11-06T00:31:19.945Z,27.90
2018-11-06T00:34:12.436Z,27.90
2018-11-06T00:37:04.615Z,27.80
2018-11-06T00:39:59.171Z,27.80
2018-11-06T00:42:53.378Z,27.80
2018-11-06T00:45:57.698Z,27.80
2018-11-06T00:48:42.107Z,27.80
2018-11-06T00:51:42.577Z,27.80
2018-11-06T00:54:36.908Z,27.80
2018-11-06T00:57:31.622Z,27.80
2018-11-06T01:00:25.857Z,27.80
2018-11-06T01:03:18.442Z,27.80
2018-11-06T01:06:10.889Z,27.80
2018-11-06T01:09:03.977Z,27.80
2018-11-06T01:11:56.152Z,27.80
2018-11-06T01:14:48.004Z,27.80
2018-11-06T01:17:44.559Z,27.80
2018-11-06T01:20:37.888Z,27.80
2018-11-06T01:23:30.458Z,27.80
2018-11-06T01:26:24.283Z,27.80
2018-11-06T01:29:17.056Z,27.70
2018-11-06T01:32:09.729Z,27.70
2018-11-06T01:35:01.316Z,27.70
2018-11-06T01:37:53.692Z,27.60
2018-11-06T01:40:45.903Z,27.60
2018-11-06T01:43:38.160Z,27.60
2018-11-06T01:46:30.763Z,27.60
2018-11-06T01:49:26.301Z,27.70
2018-11-06T01:52:18.957Z,27.70
2018-11-06T01:55:13.425Z,27.70
2018-11-06T01:58:06.173Z,27.70
2018-11-06T02:00:59.123Z,27.70
2018-11-06T02:03:51.815Z,27.70
2018-11-06T02:06:43.817Z,27.70
2018-11-06T02:09:40.197Z,27.70
2018-11-06T02:12:31.444Z,27.70
2018-11-06T02:15:25.041Z,27.70
2018-11-06T02:18:18.587Z,27.70
2018-11-06T02:21:14.986Z,27.70
2018-11-06T02:24:08.290Z,27.70
2018-11-06T02:27:01.333Z,27.60
2018-11-06T02:29:55.882Z,27.60
2018-11-06T02:32:49.600Z,27.60
2018-11-06T02:35:45.211Z,27.60
2018-11-06T02:38:37.590Z,27.70
2018-11-06T02:41:29.964Z,27.70
2018-11-06T02:44:22.241Z,27.70
2018-11-06T02:47:16.479Z,27.70
2018-11-06T02:50:09.621Z,27.70
2018-11-06T02:53:03.296Z,27.70
2018-11-06T02:55:56.544Z,27.80
2018-11-06T02:58:49.332Z,27.80
2018-11-06T03:01:42.298Z,27.80
2018-11-06T03:04:34.667Z,27.80
2018-11-06T03:07:27.885Z,27.80
2018-11-06T03:10:20.861Z,27.80
2018-11-06T03:13:13.538Z,27.80
2018-11-06T03:16:06.422Z,27.80
2018-11-06T03:19:04.565Z,27.80
2018-11-06T03:21:58.089Z,27.80
2018-11-06T03:24:51.461Z,27.80
2018-11-06T03:27:45.033Z,27.80
2018-11-06T03:30:38.434Z,27.80
2018-11-06T03:33:32.204Z,27.80
2018-11-06T03:36:24.802Z,27.80
2018-11-06T03:39:17.989Z,27.80
2018-11-06T03:42:11.649Z,27.80
2018-11-06T03:45:07.539Z,27.80
2018-11-06T03:48:01.394Z,27.80
2018-11-06T03:50:54.648Z,27.80
2018-11-06T03:53:51.143Z,27.90
2018-11-06T03:56:44.489Z,27.90
2018-11-06T03:59:37.851Z,27.90
2018-11-06T04:02:31.709Z,27.90
2018-11-06T04:05:25.442Z,27.90
2018-11-06T04:08:19.204Z,27.90
2018-11-06T04:11:16.454Z,27.80
2018-11-06T04:14:14.058Z,27.80
2018-11-06T04:17:07.403Z,27.80
2018-11-06T04:20:00.930Z,27.80
2018-11-06T04:22:53.842Z,27.90
2018-11-06T04:25:46.991Z,27.90
2018-11-06T04:28:46.797Z,27.90
2018-11-06T04:31:40.565Z,27.70
2018-11-06T04:34:33.179Z,27.40
2018-11-06T04:37:29.446Z,27.20
2018-11-06T04:40:26.705Z,27.10
2018-11-06T04:43:19.930Z,27.00
2018-11-06T04:46:09.930Z,27.00
2018-11-06T04:49:03.031Z,26.90
2018-11-06T04:51:59.675Z,26.80
2018-11-06T04:54:52.964Z,26.70
2018-11-06T04:57:58.213Z,26.70
2018-11-06T05:00:51.398Z,26.70
2018-11-06T05:03:50.426Z,26.60
2018-11-06T05:06:46.417Z,26.70
2018-11-06T05:09:38.506Z,26.80
2018-11-06T05:12:32.303Z,26.90
2018-11-06T05:15:26.828Z,27.10
2018-11-06T05:18:24.481Z,27.10
2018-11-06T05:21:14.874Z,27.20
2018-11-06T05:24:09.980Z,27.20
2018-11-06T05:27:03.213Z,27.30
2018-11-06T05:29:57.771Z,27.30
2018-11-06T05:32:52.692Z,27.40
2018-11-06T05:35:51.445Z,27.40
2018-11-06T05:40:38.491Z,27.40
2018-11-06T05:42:01.139Z,27.50
2018-11-06T05:44:51.799Z,27.50
2018-11-06T05:51:19.239Z,27.50
2018-11-06T05:54:54.003Z,27.60
2018-11-06T05:58:38.789Z,27.60
2018-11-06T06:16:37.357Z,27.80
2018-11-06T06:18:28.968Z,27.80
2018-11-06T06:24:30.183Z,27.90
2018-11-06T06:27:30.071Z,27.90
2018-11-06T06:31:14.763Z,27.90
2018-11-06T06:33:47.616Z,27.90
2018-11-06T06:37:12.911Z,28.00
2018-11-06T06:40:31.328Z,28.00
2018-11-06T06:43:43.399Z,28.00
2018-11-06T06:46:28.856Z,28.00
2018-11-06T06:49:27.917Z,28.00
2018-11-06T06:52:45.473Z,28.00
2018-11-06T06:55:39.278Z,28.10
2018-11-06T06:58:28.509Z,28.00
2018-11-06T07:01:20.680Z,28.00
2018-11-06T07:04:30.526Z,28.10
2018-11-06T07:07:09.926Z,28.00
2018-11-06T07:10:05.020Z,28.10
2018-11-06T07:13:00.754Z,28.20
2018-11-06T07:15:56.402Z,28.20
2018-11-06T07:18:49.415Z,28.20
2018-11-06T07:21:43.016Z,28.20
2018-11-06T07:24:37.155Z,28.20
2018-11-06T07:27:30.199Z,28.20
2018-11-06T07:30:24.520Z,28.20
2018-11-06T07:33:33.821Z,28.20
2018-11-06T07:37:32.880Z,28.10
2018-11-06T07:39:57.003Z,28.10
2018-11-06T07:42:54.115Z,28.20
2018-11-06T07:46:44.749Z,28.20
2018-11-06T07:49:56.669Z,28.20
2018-11-06T07:53:01.100Z,28.20
2018-11-06T07:55:56.746Z,28.20
2018-11-06T07:59:22.955Z,28.20
2018-11-06T08:02:30.397Z,28.10
2018-11-06T08:05:23.920Z,28.20
2018-11-06T08:08:26.935Z,28.10
2018-11-06T08:11:19.572Z,28.20
2018-11-06T08:14:14.889Z,28.20
2018-11-06T08:17:07.066Z,28.20
2018-11-06T08:19:59.192Z,28.20
2018-11-06T08:22:54.931Z,28.20
2018-11-06T08:25:46.927Z,28.20
2018-11-06T08:28:38.990Z,28.20
2018-11-06T08:31:31.666Z,28.20
2018-11-06T08:34:23.701Z,28.20
2018-11-06T08:37:19.018Z,28.20
2018-11-06T08:40:13.802Z,28.20
2018-11-06T08:43:08.613Z,28.20
2018-11-06T08:46:08.652Z,28.20
2018-11-06T08:48:52.858Z,28.30
2018-11-06T08:51:45.204Z,28.20
2018-11-06T08:54:37.754Z,28.30
2018-11-06T08:57:29.577Z,28.20
2018-11-06T09:00:22.012Z,28.20
2018-11-06T09:03:13.948Z,28.20
2018-11-06T09:06:09.265Z,28.20
2018-11-06T09:08:57.344Z,28.30
2018-11-06T09:11:49.124Z,28.30
2018-11-06T09:14:43.048Z,28.30
2018-11-06T09:17:35.957Z,28.30
2018-11-06T09:20:30.166Z,28.40
2018-11-06T09:23:37.480Z,28.30
2018-11-06T09:26:37.208Z,28.30
2018-11-06T09:29:31.950Z,28.30
2018-11-06T09:32:25.581Z,28.30
2018-11-06T09:35:25.135Z,28.20
2018-11-06T09:38:22.814Z,28.30
2018-11-06T09:41:22.214Z,28.30
2018-11-06T09:44:18.006Z,28.30
2018-11-06T09:47:11.924Z,28.30
2018-11-06T09:50:09.898Z,28.30
2018-11-06T09:53:03.317Z,28.40
2018-11-06T09:55:56.735Z,28.40
2018-11-06T09:58:52.579Z,28.30
2018-11-06T10:12:14.224Z,28.40
2018-11-06T10:15:44.271Z,28.40
2018-11-06T10:18:38.081Z,28.30
2018-11-06T10:21:32.440Z,28.40
2018-11-06T10:24:42.580Z,28.30
2018-11-06T10:27:31.873Z,28.40
2018-11-06T10:30:27.192Z,28.40
2018-11-06T10:33:28.459Z,28.40
2018-11-06T10:36:20.757Z,28.40
2018-11-06T10:45:16.184Z,28.40
2018-11-06T10:48:08.674Z,28.40
2018-11-06T10:51:33.965Z,28.40
2018-11-06T10:54:26.408Z,28.40
2018-11-06T10:57:33.393Z,28.40
2018-11-06T11:04:17.153Z,28.50
2018-11-06T11:07:20.707Z,28.50
2018-11-06T11:10:05.431Z,28.50
2018-11-06T11:16:31.985Z,28.50
2018-11-06T11:19:26.572Z,28.50
2018-11-06T11:22:23.932Z,28.50
2018-11-06T11:25:19.550Z,28.40
2018-11-06T11:32:15.859Z,28.50
2018-11-06T11:35:11.369Z,28.40
2018-11-06T11:38:01.819Z,28.50
2018-11-06T11:40:54.941Z,28.40
2018-11-06T11:43:46.774Z,28.50
2018-11-06T11:46:39.242Z,28.50
2018-11-06T11:49:32.068Z,28.50
2018-11-06T11:52:32.744Z,28.50
2018-11-06T11:58:33.145Z,28.50
2018-11-06T12:01:25.115Z,28.50
2018-11-06T12:04:17.618Z,28.50
2018-11-06T12:07:14.268Z,28.50
2018-11-06T12:10:02.789Z,28.50
2018-11-06T12:13:00.633Z,28.50
2018-11-06T12:15:53.172Z,28.50
2018-11-06T12:18:51.137Z,28.50
2018-11-06T12:21:49.988Z,28.50
2018-11-06T12:24:42.225Z,28.50
2018-11-06T12:27:37.596Z,28.50
2018-11-06T12:30:30.341Z,28.40
2018-11-06T12:33:21.837Z,28.40
2018-11-06T12:36:13.992Z,28.40
2018-11-06T12:39:08.574Z,28.40
2018-11-06T12:41:57.302Z,28.40
2018-11-06T12:44:48.925Z,28.40
2018-11-06T12:47:40.997Z,28.40
2018-11-06T12:51:14.038Z,28.40
2018-11-06T12:54:27.020Z,28.40
2018-11-06T13:00:54.182Z,28.40
2018-11-06T13:03:43.408Z,28.40
2018-11-06T13:06:38.564Z,28.40
2018-11-06T13:09:30.265Z,28.40
2018-11-06T13:12:21.818Z,28.40
2018-11-06T13:15:17.490Z,28.40
2018-11-06T13:18:07.588Z,28.40
2018-11-06T13:20:59.550Z,28.40
2018-11-06T13:23:55.205Z,28.40
2018-11-06T13:27:13.166Z,28.40
2018-11-06T13:30:04.342Z,28.40
2018-11-06T13:32:56.013Z,28.40
2018-11-06T13:35:47.332Z,28.40
2018-11-06T13:38:40.686Z,28.40
2018-11-06T13:41:31.930Z,28.40
2018-11-06T13:47:57.243Z,28.40
2018-11-06T13:50:47.983Z,28.40
2018-11-06T13:53:42.332Z,28.40
2018-11-06T13:56:34.623Z,28.40
2018-11-06T13:59:27.254Z,28.40
2018-11-06T14:02:22.556Z,28.40
2018-11-06T14:05:14.330Z,28.40
2018-11-06T14:08:06.049Z,28.40
2018-11-06T14:10:57.447Z,28.40
2018-11-06T14:14:14.961Z,28.30
2018-11-06T14:17:04.338Z,28.30
2018-11-06T14:19:56.233Z,28.40
2018-11-06T14:22:48.515Z,28.30
2018-11-06T14:25:40.304Z,28.30
2018-11-06T14:32:34.859Z,28.30
2018-11-06T14:36:13.956Z,28.30
2018-11-06T14:45:35.231Z,28.30
2018-11-06T14:48:34.857Z,28.30
2018-11-06T14:51:33.648Z,28.30
2018-11-06T14:54:28.231Z,28.30
2018-11-06T14:57:21.044Z,28.30
2018-11-06T15:00:23.670Z,28.30
2018-11-06T15:03:14.940Z,28.30
2018-11-06T15:06:06.512Z,28.30
2018-11-06T15:08:57.829Z,28.30
2018-11-06T15:12:05.445Z,28.30
2018-11-06T15:14:49.689Z,28.30
2018-11-06T15:17:41.682Z,28.30
2018-11-06T15:20:33.099Z,28.30
2018-11-06T15:23:27.282Z,28.30
2018-11-06T15:26:19.108Z,28.30
2018-11-06T15:29:16.397Z,28.30
2018-11-06T15:32:11.293Z,28.30
2018-11-06T15:35:16.074Z,28.30
2018-11-06T15:38:14.760Z,28.30
2018-11-06T15:41:17.246Z,28.30
2018-11-06T15:44:14.617Z,28.30
2018-11-06T15:47:13.089Z,28.30
2018-11-06T15:50:08.111Z,28.30
2018-11-06T15:53:05.779Z,28.30
2018-11-06T15:55:57.629Z,28.30
2018-11-06T15:58:52.223Z,28.30
2018-11-06T16:02:09.730Z,28.30
2018-11-06T16:05:01.655Z,28.30
2018-11-06T16:14:31.041Z,28.20
2018-11-06T16:17:45.970Z,28.20
2018-11-06T16:20:49.728Z,28.20
2018-11-06T16:23:44.949Z,28.20
2018-11-06T16:26:37.983Z,28.30
2018-11-06T16:29:44.024Z,28.20
2018-11-06T16:32:42.219Z,28.30
2018-11-06T16:35:57.914Z,28.30
2018-11-06T16:38:51.480Z,28.30
2018-11-06T16:41:56.790Z,28.30
2018-11-06T16:44:56.175Z,28.30
2018-11-06T16:48:12.131Z,28.30
2018-11-06T16:51:15.692Z,28.30
2018-11-06T16:54:24.251Z,28.30
2018-11-06T16:57:17.289Z,28.30
2018-11-06T17:00:18.961Z,28.30
2018-11-06T17:03:23.352Z,28.30
2018-11-06T17:06:06.699Z,28.30
2018-11-06T17:09:07.564Z,28.30
2018-11-06T17:12:26.356Z,28.30
2018-11-06T17:15:24.364Z,28.30
2018-11-06T17:18:24.249Z,28.30
2018-11-06T17:26:01.733Z,28.30
2018-11-06T17:28:55.450Z,28.30
2018-11-06T17:31:48.230Z,28.30
2018-11-06T17:34:39.807Z,28.30
2018-11-06T17:37:35.172Z,28.30
2018-11-06T17:48:12.623Z,28.30
2018-11-06T17:51:11.133Z,28.30
2018-11-06T17:58:33.880Z,28.30
2018-11-06T18:01:28.282Z,28.30
2018-11-06T18:04:19.914Z,28.30
2018-11-06T18:07:10.871Z,28.30
2018-11-06T18:10:02.216Z,28.20
2018-11-06T18:12:53.706Z,28.30
2018-11-06T18:15:45.213Z,28.30
2018-11-06T18:18:36.703Z,28.20
2018-11-06T18:21:28.309Z,28.20
2018-11-06T18:24:19.657Z,28.20
2018-11-06T18:27:10.736Z,28.20
2018-11-06T18:30:01.843Z,28.20
2018-11-06T18:32:53.285Z,28.20
2018-11-06T18:35:45.020Z,28.30
2018-11-06T18:38:40.307Z,28.20
2018-11-06T18:41:30.336Z,28.30
2018-11-06T18:44:21.617Z,28.20
2018-11-06T18:47:18.794Z,28.20
2018-11-06T18:50:07.354Z,28.20
2018-11-06T18:52:58.647Z,28.20
2018-11-06T18:55:52.428Z,28.20
2018-11-06T18:58:46.630Z,28.20
2018-11-06T19:01:38.056Z,28.20
2018-11-06T19:04:29.587Z,28.20
2018-11-06T19:07:21.294Z,28.20
2018-11-06T19:10:14.239Z,28.20
2018-11-06T19:13:10.759Z,28.20
2018-11-06T19:16:02.271Z,28.20
2018-11-06T19:18:54.123Z,28.20
2018-11-06T19:21:45.619Z,28.20
2018-11-06T19:24:37.474Z,28.20
2018-11-06T19:27:29.118Z,28.20
2018-11-06T19:30:22.175Z,28.20
2018-11-06T19:33:17.408Z,28.20
2018-11-06T19:36:09.210Z,28.20
2018-11-06T19:39:01.722Z,28.20
2018-11-06T19:41:53.218Z,28.20
2018-11-06T19:44:44.822Z,28.20
2018-11-06T19:47:36.304Z,28.20
2018-11-06T19:50:27.730Z,28.20
2018-11-06T19:53:19.590Z,28.20
2018-11-06T19:56:11.032Z,28.20
2018-11-06T19:59:02.317Z,28.20
2018-11-06T20:01:53.795Z,28.20
2018-11-06T20:04:45.862Z,28.20
2018-11-06T20:07:37.490Z,28.20
2018-11-06T20:10:29.324Z,28.20
2018-11-06T20:13:21.424Z,28.20
2018-11-06T20:16:15.780Z,28.20
2018-11-06T20:19:07.547Z,28.20
2018-11-06T20:21:58.732Z,28.20
2018-11-06T20:24:51.054Z,28.20
2018-11-06T20:27:43.067Z,28.20
2018-11-06T20:30:36.407Z,28.20
2018-11-06T20:33:28.336Z,28.10
2018-11-06T20:36:19.862Z,28.10
2018-11-06T20:39:12.460Z,28.10
2018-11-06T20:42:04.127Z,28.10
2018-11-06T20:44:55.348Z,28.10
2018-11-06T20:47:47.201Z,28.10
2018-11-06T20:50:38.497Z,28.20
2018-11-06T20:53:37.129Z,28.20
2018-11-06T20:56:24.517Z,28.10
2018-11-06T20:59:15.877Z,28.10
2018-11-06T21:02:07.523Z,28.10
2018-11-06T21:04:59.175Z,28.10
2018-11-06T21:07:50.745Z,28.10
2018-11-06T21:10:42.177Z,28.10
2018-11-06T21:13:33.745Z,28.10
2018-11-06T21:16:25.236Z,28.10
2018-11-06T21:19:16.907Z,28.10
2018-11-06T21:22:09.261Z,28.10
2018-11-06T21:25:01.473Z,28.10
2018-11-06T21:27:56.201Z,28.10
2018-11-06T21:30:51.507Z,28.20
2018-11-06T21:33:38.910Z,28.10
2018-11-06T21:36:30.349Z,28.10
2018-11-06T21:42:16.137Z,28.10
2018-11-06T21:45:07.250Z,28.10
2018-11-06T21:47:58.730Z,28.20
2018-11-06T21:50:50.124Z,28.20
2018-11-06T21:53:41.742Z,28.10
2018-11-06T21:56:33.161Z,28.10
2018-11-06T21:59:25.134Z,28.20
2018-11-06T22:02:16.600Z,28.20
2018-11-06T22:05:09.050Z,28.20
2018-11-06T22:08:00.405Z,28.10
2018-11-06T22:10:52.127Z,28.10
2018-11-06T22:13:43.244Z,28.10
2018-11-06T22:16:34.878Z,28.20
2018-11-06T22:19:26.080Z,28.10
2018-11-06T22:22:17.856Z,28.10
2018-11-06T22:25:09.468Z,28.10
2018-11-06T22:28:01.063Z,28.10
2018-11-06T22:30:52.701Z,28.10
2018-11-06T22:33:44.160Z,28.10
2018-11-06T22:36:35.407Z,28.10
2018-11-06T22:39:26.744Z,28.10
2018-11-06T22:42:18.605Z,28.10
2018-11-06T22:45:10.872Z,28.10
2018-11-06T22:48:02.022Z,28.10
2018-11-06T22:50:53.306Z,28.10
2018-11-06T22:53:44.841Z,28.10
2018-11-06T22:56:36.586Z,28.10
2018-11-06T22:59:28.156Z,28.10
2018-11-06T23:02:19.478Z,28.10
2018-11-06T23:05:11.727Z,28.00
2018-11-06T23:08:19.684Z,28.10
2018-11-06T23:11:11.108Z,28.10
2018-11-06T23:14:02.673Z,28.10
2018-11-06T23:16:54.156Z,28.10
2018-11-06T23:19:49.433Z,28.10
2018-11-06T23:22:40.752Z,28.10
2018-11-06T23:25:32.311Z,28.10
2018-11-06T23:28:23.719Z,28.10
2018-11-06T23:31:15.027Z,28.10
2018-11-06T23:34:06.401Z,28.00
2018-11-06T23:36:58.061Z,28.10
2018-11-06T23:39:49.641Z,28.10
2018-11-06T23:42:41.630Z,28.00
2018-11-06T23:45:32.944Z,28.10
2018-11-06T23:48:24.505Z,28.10
2018-11-06T23:51:16.129Z,28.10
2018-11-06T23:54:07.347Z,28.00
2018-11-06T23:56:59.178Z,28.00
2018-11-06T23:59:50.819Z,28.00
